Time;durP1;ratioP1;P1;durP2;ratioP2;P2;SDS_P1;SDS_P2;PMS_P1;PMS_P2;Temp;Humidity;BMP_temperature;BMP_pressure;BME280_temperature;BME280_humidity;BME280_pressure;Samples;Min_cycle;Max_cycle;Signal;HPM_P1;HPM_P2
2021/03/08 00:01:42;;;;;;;;;;;;;;;;;;5053612;28;865;-76
2021/03/08 00:04:07;;;;;;;;;;;;;;;;;;5053593;28;901;-78
2021/03/08 00:06:33;;;;;;;;;;;;;;;;;;5035855;28;1472;-78
2021/03/08 00:08:58;;;;;;;;;;;;;;;;;;5053590;28;904;-79
2021/03/08 00:11:23;;;;;;;;;;;;;;;;;;5053652;28;1894;-78
2021/03/08 00:13:49;;;;;;;;;;;;;;;;;;5035746;28;907;-79
2021/03/08 00:16:14;;;;;;;;;;;;;;;;;;5053487;28;1310;-77
2021/03/08 00:18:39;;;;;;;;;;;;;;;;;;5053258;28;951;-77
2021/03/08 00:21:04;;;;;;;;;;;;;;;;;;5035696;28;926;-78
2021/03/08 00:23:30;;;;;;;;;;;;;;;;;;5035744;28;1315;-78
2021/03/08 00:25:55;;;;;;;;;;;;;;;;;;5053370;28;1424;-77
2021/03/08 00:28:20;;;;;;;;;;;;;;;;;;5035685;28;1187;-76
2021/03/08 00:30:45;;;;;;;;;;;;;;;;;;5037060;28;1909;-79
2021/03/08 00:33:11;;;;;;;;;;;;;;;;;;5038944;28;913;-79
2021/03/08 00:35:36;;;;;;;;;;;;;;;;;;5057176;28;1401;-79
2021/03/08 00:38:01;;;;;;;;;;;;;;;;;;5057168;28;893;-78
2021/03/08 00:40:26;;;;;;;;;;;;;;;;;;5039238;28;936;-80
2021/03/08 00:42:52;;;;;;;;;;;;;;;;;;5038856;28;1429;-80
2021/03/08 00:45:18;;;;;;;;;;;;;;;;;;5039152;28;1602;-77
2021/03/08 00:47:44;;;;;;;;;;;;;;;;;;5056860;28;855;-79
2021/03/08 00:50:14;;;;;;;;;;;;;;;;;;5057114;28;814;-76
2021/03/08 00:52:39;;;;;;;;;;;;;;;;;;5056535;28;1890;-79
2021/03/08 00:55:05;;;;;;;;;;;;;;;;;;5056761;28;1075;-76
2021/03/08 00:57:30;;;;;;;;;;;;;;;;;;5056698;28;1412;-80
2021/03/08 00:59:55;;;;;;;;;;;;;;;;;;5056945;28;948;-79
2021/03/08 01:02:20;;;;;;;;;;;;;;;;;;5056342;28;873;-80
2021/03/08 01:04:46;;;;;;;;;;;;;;;;;;5038772;28;1527;-78
2021/03/08 01:07:11;;;;;;;;;;;;;;;;;;5056633;28;1396;-79
2021/03/08 01:09:36;;;;;;;;;;;;;;;;;;5038751;28;2633;-79
2021/03/08 01:12:02;;;;;;;;;;;;;;;;;;5056332;28;1947;-77
2021/03/08 01:14:28;;;;;;;;;;;;;;;;;;5056269;28;1071;-76
2021/03/08 01:16:53;;;;;;;;;;;;;;;;;;5056432;28;1310;-75
2021/03/08 01:19:18;;;;;;;;;;;;;;;;;;5056333;28;900;-76
2021/03/08 01:21:43;;;;;;;;;;;;;;;;;;5056190;28;861;-75
2021/03/08 01:24:09;;;;;;;;;;;;;;;;;;5038168;28;846;-76
2021/03/08 01:26:35;;;;;;;;;;;;;;;;;;5056156;28;1345;-78
2021/03/08 01:29:00;;;;;;;;;;;;;;;;;;5056178;28;897;-78
2021/03/08 01:31:25;;;;;;;;;;;;;;;;;;5056097;28;1963;-77
2021/03/08 01:33:51;;;;;;;;;;;;;;;;;;5038291;28;1330;-80
2021/03/08 01:36:17;;;;;;;;;;;;;;;;;;5055636;28;1358;-78
2021/03/08 01:38:42;;;;;;;;;;;;;;;;;;5038082;28;1211;-78
2021/03/08 01:41:08;;;;;;;;;;;;;;;;;;5055939;28;1040;-77
2021/03/08 01:43:33;;;;;;;;;;;;;;;;;;5054967;28;899;-79
2021/03/08 01:45:58;;;;;;;;;;;;;;;;;;5055633;28;1301;-78
2021/03/08 01:48:23;;;;;;;;;;;;;;;;;;5056099;28;762;-78
2021/03/08 01:50:49;;;;;;;;;;;;;;;;;;5038364;28;1953;-77
2021/03/08 01:53:17;;;;;;;;;;;;;;;;;;5056320;28;917;-78
2021/03/08 01:55:42;;;;;;;;;;;;;;;;;;5056257;28;1290;-77
2021/03/08 01:58:08;;;;;;;;;;;;;;;;;;5056518;28;823;-77
2021/03/08 02:00:34;;;;;;;;;;;;;;;;;;5056416;28;810;-76
2021/03/08 02:03:00;;;;;;;;;;;;;;;;;;5038548;28;1192;-77
2021/03/08 02:05:45;;;;;;;;;;;;;;;;;;5055818;28;1428;-77
2021/03/08 02:08:12;;;;;;;;;;;;;;;;;;5055751;28;1022;-78
2021/03/08 02:10:39;;;;;;;;;;;;;;;;;;5055694;28;1957;-76
2021/03/08 02:13:23;;;;;;;;;;;;;;;;;;5055859;28;956;-75
2021/03/08 02:15:51;;;;;;;;;;;;;;;;;;5055735;28;1389;-76
2021/03/08 02:18:28;;;;;;;;;;;;;;;;;;5055815;28;885;-75
2021/03/08 02:20:56;;;;;;;;;;;;;;;;;;5055704;28;976;-75
2021/03/08 02:23:21;;;;;;;;;;;;;;;;;;5055485;28;802;-75
2021/03/08 02:26:02;;;;;;;;;;;;;;;;;;5055630;28;1334;-77
2021/03/08 02:28:45;;;;;;;;;;;;;;;;;;5038241;28;1399;-77
2021/03/08 02:31:12;;;;;;;;;;;;;;;;;;5037314;28;1890;-78
2021/03/08 02:33:39;;;;;;;;;;;;;;;;;;5055498;28;867;-79
2021/03/08 02:36:06;;;;;;;;;;;;;;;;;;5055386;28;1322;-76
2021/03/08 02:38:38;;;;;;;;;;;;;;;;;;5055313;28;1389;-76
2021/03/08 02:41:06;;;;;;;;;;;;;;;;;;5055127;28;967;-78
2021/03/08 02:43:31;;;;;;;;;;;;;;;;;;5055054;28;818;-75
2021/03/08 02:45:58;;;;;;;;;;;;;;;;;;5055229;28;1456;-77
2021/03/08 02:48:24;;;;;;;;;;;;;;;;;;5037285;28;956;-78
2021/03/08 02:50:51;;;;;;;;;;;;;;;;;;5055327;28;1898;-76
2021/03/08 02:53:18;;;;;;;;;;;;;;;;;;5037004;28;1435;-76
2021/03/08 02:55:51;;;;;;;;;;;;;;;;;;5054832;28;1353;-75
2021/03/08 02:58:17;;;;;;;;;;;;;;;;;;5055107;28;909;-74
2021/03/08 03:00:43;;;;;;;;;;;;;;;;;;5054998;28;893;-78
2021/03/08 03:03:08;;;;;;;;;;;;;;;;;;5036696;28;1325;-75
2021/03/08 03:05:37;;;;;;;;;;;;;;;;;;5055180;28;1389;-78
2021/03/08 03:08:03;;;;;;;;;;;;;;;;;;5054833;28;828;-79
2021/03/08 03:10:31;;;;;;;;;;;;;;;;;;5054857;28;1034;-75
2021/03/08 03:12:58;;;;;;;;;;;;;;;;;;5054548;28;1902;-77
2021/03/08 03:15:23;;;;;;;;;;;;;;;;;;5054482;28;1365;-79
2021/03/08 03:17:50;;;;;;;;;;;;;;;;;;5037075;28;874;-77
2021/03/08 03:20:16;;;;;;;;;;;;;;;;;;5037201;28;1126;-77
2021/03/08 03:22:44;;;;;;;;;;;;;;;;;;5036720;28;1166;-75
2021/03/08 03:25:10;;;;;;;;;;;;;;;;;;5054476;28;1321;-75
2021/03/08 03:27:36;;;;;;;;;;;;;;;;;;5054390;28;818;-77
2021/03/08 03:30:03;;;;;;;;;;;;;;;;;;5036785;28;1215;-77
2021/03/08 03:32:28;;;;;;;;;;;;;;;;;;5054239;28;1913;-75
2021/03/08 03:34:55;;;;;;;;;;;;;;;;;;5036392;28;1208;-76
2021/03/08 03:37:22;;;;;;;;;;;;;;;;;;5036586;28;1438;-76
2021/03/08 03:39:47;;;;;;;;;;;;;;;;;;5036622;28;1651;-75
2021/03/08 03:42:14;;;;;;;;;;;;;;;;;;5054363;28;908;-77
2021/03/08 03:44:39;;;;;;;;;;;;;;;;;;5036400;28;1788;-77
2021/03/08 03:47:04;;;;;;;;;;;;;;;;;;5054171;28;1433;-78
2021/03/08 03:49:29;;;;;;;;;;;;;;;;;;5054270;28;908;-76
2021/03/08 03:51:55;;;;;;;;;;;;;;;;;;5054165;28;1961;-76
2021/03/08 03:54:20;;;;;;;;;;;;;;;;;;5054014;28;1120;-77
2021/03/08 03:56:53;;;;;;;;;;;;;;;;;;5036289;28;1492;-79
2021/03/08 03:59:21;;;;;;;;;;;;;;;;;;5036416;28;807;-78
2021/03/08 04:01:52;;;;;;;;;;;;;;;;;;5036291;28;1403;-79
2021/03/08 04:04:20;;;;;;;;;;;;;;;;;;5053998;28;877;-77
2021/03/08 04:06:47;;;;;;;;;;;;;;;;;;5039631;28;1487;-78
2021/03/08 04:09:14;;;;;;;;;;;;;;;;;;5058063;28;960;-77
2021/03/08 04:11:42;;;;;;;;;;;;;;;;;;5058195;28;1897;-75
2021/03/08 04:14:09;;;;;;;;;;;;;;;;;;5040529;28;1401;-78
2021/03/08 04:16:39;;;;;;;;;;;;;;;;;;5040021;28;1381;-77
2021/03/08 04:19:05;;;;;;;;;;;;;;;;;;5039988;28;1349;-77
2021/03/08 04:21:34;;;;;;;;;;;;;;;;;;5058074;28;991;-77
2021/03/08 04:24:00;;;;;;;;;;;;;;;;;;5039958;28;1398;-76
2021/03/08 04:26:26;;;;;;;;;;;;;;;;;;5057800;28;1310;-78
2021/03/08 04:28:51;;;;;;;;;;;;;;;;;;5057685;28;956;-77
2021/03/08 04:31:16;;;;;;;;;;;;;;;;;;5057753;28;1902;-77
2021/03/08 04:33:43;;;;;;;;;;;;;;;;;;5057659;28;1003;-78
2021/03/08 04:36:09;;;;;;;;;;;;;;;;;;5039628;28;1527;-78
2021/03/08 04:38:35;;;;;;;;;;;;;;;;;;5057793;28;964;-78
2021/03/08 04:41:01;;;;;;;;;;;;;;;;;;5039613;28;1511;-77
2021/03/08 04:43:27;;;;;;;;;;;;;;;;;;5057610;28;878;-76
2021/03/08 04:45:56;;;;;;;;;;;;;;;;;;5058074;28;1333;-76
2021/03/08 04:48:22;;;;;;;;;;;;;;;;;;5040675;28;1388;-76
2021/03/08 04:50:49;;;;;;;;;;;;;;;;;;5058052;28;1971;-76
2021/03/08 04:53:15;;;;;;;;;;;;;;;;;;5057260;28;908;-76
2021/03/08 04:55:40;;;;;;;;;;;;;;;;;;5057437;28;1317;-78
2021/03/08 04:58:06;;;;;;;;;;;;;;;;;;5057355;28;1090;-78
2021/03/08 05:00:31;;;;;;;;;;;;;;;;;;5057360;28;908;-74
2021/03/08 05:02:57;;;;;;;;;;;;;;;;;;5057162;28;876;-76
2021/03/08 05:05:23;;;;;;;;;;;;;;;;;;5057328;28;1290;-76
2021/03/08 05:07:52;;;;;;;;;;;;;;;;;;5039236;28;1557;-77
2021/03/08 05:10:19;;;;;;;;;;;;;;;;;;5057313;28;905;-78
2021/03/08 05:12:45;;;;;;;;;;;;;;;;;;5056810;28;1898;-77
2021/03/08 05:15:11;;;;;;;;;;;;;;;;;;5039057;28;1290;-76
2021/03/08 05:17:37;;;;;;;;;;;;;;;;;;5037816;28;1002;-76
2021/03/08 05:20:07;;;;;;;;;;;;;;;;;;5057008;28;962;-80
2021/03/08 05:22:35;;;;;;;;;;;;;;;;;;5056842;28;925;-79
2021/03/08 05:25:00;;;;;;;;;;;;;;;;;;5022466;28;1332;-77
2021/03/08 05:27:26;;;;;;;;;;;;;;;;;;5056455;28;1357;-79
2021/03/08 05:29:52;;;;;;;;;;;;;;;;;;5038902;28;2464;-77
2021/03/08 05:32:23;;;;;;;;;;;;;;;;;;5056419;28;1967;-75
2021/03/08 05:34:49;;;;;;;;;;;;;;;;;;5056495;28;1051;-76
2021/03/08 05:37:16;;;;;;;;;;;;;;;;;;5056495;28;1345;-78
2021/03/08 05:39:43;;;;;;;;;;;;;;;;;;5056576;28;909;-76
2021/03/08 05:42:10;;;;;;;;;;;;;;;;;;5056369;28;833;-77
2021/03/08 05:44:35;;;;;;;;;;;;;;;;;;5038451;28;1291;-74
2021/03/08 05:47:14;;;;;;;;;;;;;;;;;;5039203;28;1365;-78
2021/03/08 05:50:03;;;;;;;;;;;;;;;;;;5059542;28;888;-76
2021/03/08 05:52:41;;;;;;;;;;;;;;;;;;5040287;28;1897;-77
2021/03/08 05:55:18;;;;;;;;;;;;;;;;;;5059753;28;1012;-76
2021/03/08 05:58:02;;;;;;;;;;;;;;;;;;5042763;28;1178;-79
2021/03/08 06:00:45;;;;;;;;;;;;;;;;;;5059983;28;825;-76
2021/03/08 06:03:22;;;;;;;;;;;;;;;;;;5041785;28;1204;-79
2021/03/08 06:06:06;;;;;;;;;;;;;;;;;;5042222;28;1576;-78
2021/03/08 06:08:41;;;;;;;;;;;;;;;;;;5060033;28;956;-79
2021/03/08 06:11:11;;;;;;;;;;;;;;;;;;5042147;28;1878;-78
2021/03/08 06:13:40;;;;;;;;;;;;;;;;;;5059095;28;826;-76
2021/03/08 06:16:08;;;;;;;;;;;;;;;;;;5041270;28;1893;-75
2021/03/08 06:18:39;;;;;;;;;;;;;;;;;;5059744;28;908;-80
2021/03/08 06:21:04;;;;;;;;;;;;;;;;;;5059703;28;953;-75
2021/03/08 06:23:30;;;;;;;;;;;;;;;;;;5059173;28;833;-76
2021/03/08 06:25:56;;;;;;;;;;;;;;;;;;5041254;28;1381;-76
2021/03/08 06:28:22;;;;;;;;;;;;;;;;;;5040855;28;1490;-75
2021/03/08 06:30:48;;;;;;;;;;;;;;;;;;5041930;28;1901;-79
2021/03/08 06:33:14;;;;;;;;;;;;;;;;;;5040474;28;1310;-77
2021/03/08 06:35:40;;;;;;;;;;;;;;;;;;5059400;28;1361;-79
2021/03/08 06:38:06;;;;;;;;;;;;;;;;;;5059063;28;813;-78
2021/03/08 06:40:32;;;;;;;;;;;;;;;;;;5041033;28;1305;-76
2021/03/08 06:42:57;;;;;;;;;;;;;;;;;;5058337;28;856;-75
2021/03/08 06:45:22;;;;;;;;;;;;;;;;;;5059088;28;1277;-76
2021/03/08 06:47:48;;;;;;;;;;;;;;;;;;5040097;28;830;-80
2021/03/08 06:50:14;;;;;;;;;;;;;;;;;;5041215;28;1601;-77
2021/03/08 06:52:40;;;;;;;;;;;;;;;;;;5038317;28;2308;-79
2021/03/08 06:55:06;;;;;;;;;;;;;;;;;;5055256;28;893;-77
2021/03/08 06:57:32;;;;;;;;;;;;;;;;;;5037086;28;2033;-76
2021/03/08 07:00:01;;;;;;;;;;;;;;;;;;5054954;28;932;-76
2021/03/08 07:02:45;;;;;;;;;;;;;;;;;;5055133;28;814;-76
2021/03/08 07:05:12;;;;;;;;;;;;;;;;;;5054992;28;1388;-76
2021/03/08 07:07:52;;;;;;;;;;;;;;;;;;5055012;28;920;-78
2021/03/08 07:10:29;;;;;;;;;;;;;;;;;;5054927;28;877;-74
2021/03/08 07:12:55;;;;;;;;;;;;;;;;;;5036709;28;1890;-77
2021/03/08 07:15:20;;;;;;;;;;;;;;;;;;5036939;28;1420;-79
2021/03/08 07:17:45;;;;;;;;;;;;;;;;;;5054779;28;944;-77
2021/03/08 07:20:11;;;;;;;;;;;;;;;;;;5054695;28;933;-77
2021/03/08 07:22:47;;;;;;;;;;;;;;;;;;5054350;28;1135;-77
2021/03/08 07:25:26;;;;;;;;;;;;;;;;;;5054800;28;1294;-76
2021/03/08 07:27:56;;;;;;;;;;;;;;;;;;5036833;28;1416;-75
2021/03/08 07:30:23;;;;;;;;;;;;;;;;;;5036578;28;1436;-77
2021/03/08 07:32:52;;;;;;;;;;;;;;;;;;5054321;28;1894;-76
2021/03/08 07:35:31;;;;;;;;;;;;;;;;;;5054517;28;1356;-75
2021/03/08 07:37:56;;;;;;;;;;;;;;;;;;5054510;28;999;-75
2021/03/08 07:40:22;;;;;;;;;;;;;;;;;;5036417;28;822;-75
2021/03/08 07:42:48;;;;;;;;;;;;;;;;;;5036117;28;1214;-75
2021/03/08 07:45:13;;;;;;;;;;;;;;;;;;5054368;28;1326;-75
2021/03/08 07:47:38;;;;;;;;;;;;;;;;;;5054321;28;833;-75
2021/03/08 07:50:23;;;;;;;;;;;;;;;;;;5036749;28;1003;-75
2021/03/08 07:52:48;;;;;;;;;;;;;;;;;;5054046;28;1898;-76
2021/03/08 07:55:14;;;;;;;;;;;;;;;;;;5054282;28;1364;-75
2021/03/08 07:57:39;;;;;;;;;;;;;;;;;;5054274;28;869;-75
2021/03/08 08:00:05;;;;;;;;;;;;;;;;;;5036452;28;1674;-76
2021/03/08 08:02:30;;;;;;;;;;;;;;;;;;5054126;28;908;-76
2021/03/08 08:04:56;;;;;;;;;;;;;;;;;;5036170;28;894;-75
2021/03/08 08:07:22;;;;;;;;;;;;;;;;;;5054441;28;1428;-74
2021/03/08 08:09:47;;;;;;;;;;;;;;;;;;5054364;28;818;-75
2021/03/08 08:12:14;;;;;;;;;;;;;;;;;;5036098;28;1902;-76
2021/03/08 08:14:40;;;;;;;;;;;;;;;;;;5054086;28;886;-76
2021/03/08 08:17:09;;;;;;;;;;;;;;;;;;5054379;28;1286;-76
2021/03/08 08:19:36;;;;;;;;;;;;;;;;;;5054021;28;888;-75
2021/03/08 08:22:02;;;;;;;;;;;;;;;;;;5036136;28;1356;-75
2021/03/08 08:24:28;;;;;;;;;;;;;;;;;;5036231;28;1483;-75
2021/03/08 08:26:55;;;;;;;;;;;;;;;;;;5053775;28;1426;-75
2021/03/08 08:29:22;;;;;;;;;;;;;;;;;;5036305;28;1506;-74
2021/03/08 08:32:00;;;;;;;;;;;;;;;;;;5053936;28;1898;-77
2021/03/08 08:34:39;;;;;;;;;;;;;;;;;;5053904;28;923;-73
2021/03/08 08:37:05;;;;;;;;;;;;;;;;;;5053909;28;1329;-77
2021/03/08 08:39:31;;;;;;;;;;;;;;;;;;5053914;28;790;-75
2021/03/08 08:42:16;;;;;;;;;;;;;;;;;;5053938;28;881;-75
2021/03/08 08:44:42;;;;;;;;;;;;;;;;;;5046472;28;1295;-77
2021/03/08 08:47:13;;;;;;;;;;;;;;;;;;5053683;28;1310;-75
2021/03/08 08:49:40;;;;;;;;;;;;;;;;;;5053840;28;928;-78
2021/03/08 08:52:05;;;;;;;;;;;;;;;;;;5037891;28;1996;-77
2021/03/08 08:54:30;;;;;;;;;;;;;;;;;;5039323;28;1398;-74
2021/03/08 08:56:58;;;;;;;;;;;;;;;;;;5039635;28;1366;-76
2021/03/08 08:59:24;;;;;;;;;;;;;;;;;;5057472;28;873;-76
2021/03/08 09:01:49;;;;;;;;;;;;;;;;;;5039522;28;1537;-77
2021/03/08 09:04:19;;;;;;;;;;;;;;;;;;5057364;28;908;-77
2021/03/08 09:06:49;;;;;;;;;;;;;;;;;;5057439;28;1420;-76
2021/03/08 09:09:15;;;;;;;;;;;;;;;;;;5057261;28;830;-77
2021/03/08 09:11:43;;;;;;;;;;;;;;;;;;5056978;28;1961;-74
2021/03/08 09:14:25;;;;;;;;;;;;;;;;;;5057007;28;821;-75
2021/03/08 09:17:05;;;;;;;;;;;;;;;;;;5056707;28;1334;-76
2021/03/08 09:19:30;;;;;;;;;;;;;;;;;;5056968;28;954;-75
2021/03/08 09:22:15;;;;;;;;;;;;;;;;;;5039396;28;928;-76
2021/03/08 09:24:41;;;;;;;;;;;;;;;;;;5056840;28;1417;-75
2021/03/08 09:27:06;;;;;;;;;;;;;;;;;;5056838;28;1408;-76
2021/03/08 09:29:32;;;;;;;;;;;;;;;;;;5039067;28;850;-77
2021/03/08 09:31:57;;;;;;;;;;;;;;;;;;5038839;28;1901;-74
2021/03/08 09:34:23;;;;;;;;;;;;;;;;;;5039033;28;937;-77
2021/03/08 09:36:49;;;;;;;;;;;;;;;;;;5056687;28;1401;-75
2021/03/08 09:39:14;;;;;;;;;;;;;;;;;;5038637;28;1227;-74
2021/03/08 09:41:40;;;;;;;;;;;;;;;;;;5038965;28;1251;-77
2021/03/08 09:44:05;;;;;;;;;;;;;;;;;;5056561;28;969;-75
2021/03/08 09:46:31;;;;;;;;;;;;;;;;;;5038581;28;2456;-76
2021/03/08 09:48:56;;;;;;;;;;;;;;;;;;5056708;28;881;-75
2021/03/08 09:51:21;;;;;;;;;;;;;;;;;;5056382;28;1957;-77
2021/03/08 09:53:47;;;;;;;;;;;;;;;;;;5038080;28;1215;-76
2021/03/08 09:56:17;;;;;;;;;;;;;;;;;;5038261;28;1448;-75
2021/03/08 09:58:43;;;;;;;;;;;;;;;;;;5038580;28;1211;-76
2021/03/08 10:01:11;;;;;;;;;;;;;;;;;;5056289;28;874;-74
2021/03/08 10:03:36;;;;;;;;;;;;;;;;;;5055606;28;883;-76
2021/03/08 10:06:02;;;;;;;;;;;;;;;;;;5056023;28;1428;-77
2021/03/08 10:08:31;;;;;;;;;;;;;;;;;;5056187;28;964;-78
2021/03/08 10:10:56;;;;;;;;;;;;;;;;;;5055757;28;1959;-76
2021/03/08 10:13:22;;;;;;;;;;;;;;;;;;5055891;28;936;-75
2021/03/08 10:15:48;;;;;;;;;;;;;;;;;;5055944;28;1333;-73
2021/03/08 10:18:15;;;;;;;;;;;;;;;;;;5037987;28;1627;-74
2021/03/08 10:20:48;;;;;;;;;;;;;;;;;;5056197;28;818;-76
2021/03/08 10:23:18;;;;;;;;;;;;;;;;;;5055874;28;981;-76
2021/03/08 10:25:44;;;;;;;;;;;;;;;;;;5037647;28;1452;-75
2021/03/08 10:28:09;;;;;;;;;;;;;;;;;;5055786;28;924;-74
2021/03/08 10:30:35;;;;;;;;;;;;;;;;;;5055781;28;910;-75
2021/03/08 10:33:05;;;;;;;;;;;;;;;;;;5055409;28;1894;-76
2021/03/08 10:35:32;;;;;;;;;;;;;;;;;;5037837;28;1294;-74
2021/03/08 10:37:58;;;;;;;;;;;;;;;;;;5055443;28;775;-74
2021/03/08 10:40:24;;;;;;;;;;;;;;;;;;5055764;28;794;-73
2021/03/08 10:42:49;;;;;;;;;;;;;;;;;;5055042;28;1033;-73
2021/03/08 10:45:15;;;;;;;;;;;;;;;;;;5037456;28;1392;-74
2021/03/08 10:47:40;;;;;;;;;;;;;;;;;;5055452;28;947;-74
2021/03/08 10:50:06;;;;;;;;;;;;;;;;;;5055398;28;1080;-76
2021/03/08 10:52:31;;;;;;;;;;;;;;;;;;5037193;28;1949;-76
2021/03/08 10:54:56;;;;;;;;;;;;;;;;;;5055109;28;835;-75
2021/03/08 10:57:23;;;;;;;;;;;;;;;;;;5055125;28;1330;-76
2021/03/08 10:59:49;;;;;;;;;;;;;;;;;;5055104;28;842;-75
2021/03/08 11:02:15;;;;;;;;;;;;;;;;;;5054945;28;917;-77
2021/03/08 11:04:44;;;;;;;;;;;;;;;;;;5055098;28;923;-76
2021/03/08 11:07:10;;;;;;;;;;;;;;;;;;5054697;28;1372;-74
2021/03/08 11:09:37;;;;;;;;;;;;;;;;;;5055172;28;794;-75
2021/03/08 11:12:03;;;;;;;;;;;;;;;;;;5054663;28;1898;-75
2021/03/08 11:14:29;;;;;;;;;;;;;;;;;;5054344;28;904;-76
2021/03/08 11:16:55;;;;;;;;;;;;;;;;;;5036467;28;1337;-77
2021/03/08 11:19:21;;;;;;;;;;;;;;;;;;5036826;28;862;-75
2021/03/08 11:22:07;;;;;;;;;;;;;;;;;;5054725;28;1016;-76
2021/03/08 11:24:49;;;;;;;;;;;;;;;;;;5036567;28;1284;-77
2021/03/08 11:27:32;;;;;;;;;;;;;;;;;;5054663;28;1321;-75
2021/03/08 11:30:05;;;;;;;;;;;;;;;;;;5037089;28;877;-76
2021/03/08 11:32:31;;;;;;;;;;;;;;;;;;5054364;28;1964;-77
2021/03/08 11:34:57;;;;;;;;;;;;;;;;;;5054833;28;857;-76
2021/03/08 11:37:23;;;;;;;;;;;;;;;;;;5054469;28;1500;-75
2021/03/08 11:39:48;;;;;;;;;;;;;;;;;;5054375;28;834;-75
2021/03/08 11:42:14;;;;;;;;;;;;;;;;;;5054250;28;853;-76
2021/03/08 11:44:40;;;;;;;;;;;;;;;;;;5036692;28;1324;-72
2021/03/08 11:47:06;;;;;;;;;;;;;;;;;;5054418;28;1317;-75
2021/03/08 11:49:31;;;;;;;;;;;;;;;;;;5054412;28;810;-76
2021/03/08 11:51:56;;;;;;;;;;;;;;;;;;5054236;28;1941;-75
2021/03/08 11:54:22;;;;;;;;;;;;;;;;;;5054142;28;825;-75
2021/03/08 11:56:47;;;;;;;;;;;;;;;;;;5054183;28;1412;-76
2021/03/08 11:59:12;;;;;;;;;;;;;;;;;;5054266;28;964;-75
2021/03/08 12:01:37;;;;;;;;;;;;;;;;;;5054588;28;872;-75
2021/03/08 12:04:03;;;;;;;;;;;;;;;;;;5054282;28;870;-74
2021/03/08 12:06:28;;;;;;;;;;;;;;;;;;5036282;28;1524;-76
2021/03/08 12:08:53;;;;;;;;;;;;;;;;;;5054079;28;842;-74
2021/03/08 12:11:18;;;;;;;;;;;;;;;;;;5054207;28;1894;-75
2021/03/08 12:13:44;;;;;;;;;;;;;;;;;;5036268;28;1556;-74
2021/03/08 12:16:09;;;;;;;;;;;;;;;;;;5054112;28;1302;-74
2021/03/08 12:18:34;;;;;;;;;;;;;;;;;;5036385;28;1247;-74
2021/03/08 12:21:00;;;;;;;;;;;;;;;;;;5053964;28;849;-74
2021/03/08 12:23:25;;;;;;;;;;;;;;;;;;5053903;28;963;-73
2021/03/08 12:25:50;;;;;;;;;;;;;;;;;;5036443;28;1330;-73
2021/03/08 12:28:15;;;;;;;;;;;;;;;;;;5058014;28;995;-73
2021/03/08 12:30:41;;;;;;;;;;;;;;;;;;5040242;28;1172;-75
2021/03/08 12:33:06;;;;;;;;;;;;;;;;;;5039729;28;1967;-73
2021/03/08 12:35:31;;;;;;;;;;;;;;;;;;5039787;28;1396;-74
2021/03/08 12:37:57;;;;;;;;;;;;;;;;;;5039821;28;1219;-74
2021/03/08 12:40:22;;;;;;;;;;;;;;;;;;5058048;28;961;-74
2021/03/08 12:42:47;;;;;;;;;;;;;;;;;;5039438;28;881;-73
2021/03/08 12:45:13;;;;;;;;;;;;;;;;;;5057734;28;1338;-74
2021/03/08 12:47:38;;;;;;;;;;;;;;;;;;5039761;28;822;-74
2021/03/08 12:50:04;;;;;;;;;;;;;;;;;;5039777;28;2290;-73
2021/03/08 12:52:29;;;;;;;;;;;;;;;;;;5022984;28;1963;-74
2021/03/08 12:54:54;;;;;;;;;;;;;;;;;;5057370;28;897;-73
2021/03/08 12:57:19;;;;;;;;;;;;;;;;;;5039526;28;1401;-74
2021/03/08 12:59:44;;;;;;;;;;;;;;;;;;5057401;28;833;-74
2021/03/08 13:02:10;;;;;;;;;;;;;;;;;;5039470;28;1593;-72
2021/03/08 13:04:35;;;;;;;;;;;;;;;;;;5057402;28;905;-72
2021/03/08 13:07:00;;;;;;;;;;;;;;;;;;5039180;28;1409;-72
2021/03/08 13:09:26;;;;;;;;;;;;;;;;;;5057210;28;972;-72
2021/03/08 13:11:51;;;;;;;;;;;;;;;;;;5057383;28;1906;-74
2021/03/08 13:14:17;;;;;;;;;;;;;;;;;;5039086;28;2279;-73
2021/03/08 13:16:42;;;;;;;;;;;;;;;;;;5039210;28;1346;-72
2021/03/08 13:19:07;;;;;;;;;;;;;;;;;;5057026;28;946;-71
2021/03/08 13:21:32;;;;;;;;;;;;;;;;;;5039287;28;940;-71
2021/03/08 13:23:58;;;;;;;;;;;;;;;;;;5056874;28;810;-73
2021/03/08 13:26:23;;;;;;;;;;;;;;;;;;5039025;28;1294;-72
2021/03/08 13:28:50;;;;;;;;;;;;;;;;;;5038959;28;1008;-71
2021/03/08 13:31:15;;;;;;;;;;;;;;;;;;5056826;28;1910;-70
2021/03/08 13:33:40;;;;;;;;;;;;;;;;;;5038640;28;1188;-70
2021/03/08 13:36:06;;;;;;;;;;;;;;;;;;5056743;28;1318;-70
2021/03/08 13:38:31;;;;;;;;;;;;;;;;;;5055653;28;880;-70
2021/03/08 13:40:56;;;;;;;;;;;;;;;;;;5056727;28;976;-72
2021/03/08 13:43:22;;;;;;;;;;;;;;;;;;5056450;28;861;-72
2021/03/08 13:45:47;;;;;;;;;;;;;;;;;;5056499;28;1298;-70
2021/03/08 13:48:12;;;;;;;;;;;;;;;;;;5056545;28;877;-72
2021/03/08 13:50:38;;;;;;;;;;;;;;;;;;5038683;28;1298;-71
2021/03/08 13:53:03;;;;;;;;;;;;;;;;;;5038366;28;1902;-70
2021/03/08 13:55:28;;;;;;;;;;;;;;;;;;5056272;28;1337;-71
2021/03/08 13:57:54;;;;;;;;;;;;;;;;;;5038140;28;1319;-70
2021/03/08 14:00:19;;;;;;;;;;;;;;;;;;5056406;28;889;-71
2021/03/08 14:02:45;;;;;;;;;;;;;;;;;;5056188;28;1023;-70
2021/03/08 14:05:10;;;;;;;;;;;;;;;;;;5056134;28;1482;-70
2021/03/08 14:07:35;;;;;;;;;;;;;;;;;;5056251;28;785;-70
2021/03/08 14:10:02;;;;;;;;;;;;;;;;;;5038225;28;1345;-70
2021/03/08 14:12:27;;;;;;;;;;;;;;;;;;5055981;28;1960;-70
2021/03/08 14:14:53;;;;;;;;;;;;;;;;;;5056052;28;892;-69
2021/03/08 14:17:18;;;;;;;;;;;;;;;;;;5055863;28;1337;-70
2021/03/08 14:19:43;;;;;;;;;;;;;;;;;;5055815;28;884;-70
2021/03/08 14:22:08;;;;;;;;;;;;;;;;;;5055810;28;949;-70
2021/03/08 14:24:34;;;;;;;;;;;;;;;;;;5038064;28;1216;-71
2021/03/08 14:26:59;;;;;;;;;;;;;;;;;;5055689;28;1420;-70
2021/03/08 14:29:24;;;;;;;;;;;;;;;;;;5038310;28;1149;-69
2021/03/08 14:31:49;;;;;;;;;;;;;;;;;;5055669;28;1915;-70
2021/03/08 14:34:15;;;;;;;;;;;;;;;;;;5055215;28;920;-69
2021/03/08 14:36:40;;;;;;;;;;;;;;;;;;5055528;28;1401;-70
2021/03/08 14:39:05;;;;;;;;;;;;;;;;;;5038075;28;889;-70
2021/03/08 14:41:30;;;;;;;;;;;;;;;;;;5055343;28;874;-71
2021/03/08 14:43:56;;;;;;;;;;;;;;;;;;5055259;28;922;-71
2021/03/08 14:46:21;;;;;;;;;;;;;;;;;;5037316;28;1350;-71
2021/03/08 14:48:46;;;;;;;;;;;;;;;;;;5037420;28;1196;-70
2021/03/08 14:51:11;;;;;;;;;;;;;;;;;;5055324;28;1894;-71
2021/03/08 14:53:37;;;;;;;;;;;;;;;;;;5054910;28;1159;-70
2021/03/08 14:56:02;;;;;;;;;;;;;;;;;;5055077;28;1364;-69
2021/03/08 14:58:27;;;;;;;;;;;;;;;;;;5037243;28;1183;-70
2021/03/08 15:00:53;;;;;;;;;;;;;;;;;;5037350;28;1203;-70
2021/03/08 15:03:18;;;;;;;;;;;;;;;;;;5054996;28;807;-73
2021/03/08 15:05:43;;;;;;;;;;;;;;;;;;5055046;28;1321;-73
2021/03/08 15:08:09;;;;;;;;;;;;;;;;;;5054808;28;929;-74
2021/03/08 15:10:34;;;;;;;;;;;;;;;;;;5037247;28;1471;-73
2021/03/08 15:12:59;;;;;;;;;;;;;;;;;;5054636;28;1956;-73
2021/03/08 15:15:24;;;;;;;;;;;;;;;;;;5054686;28;1365;-72
2021/03/08 15:17:50;;;;;;;;;;;;;;;;;;5036992;28;1244;-74
2021/03/08 15:20:15;;;;;;;;;;;;;;;;;;5037019;28;1673;-73
2021/03/08 15:22:41;;;;;;;;;;;;;;;;;;5036741;28;803;-75
2021/03/08 15:25:07;;;;;;;;;;;;;;;;;;5036732;28;1191;-73
2021/03/08 15:27:32;;;;;;;;;;;;;;;;;;5054482;28;1273;-74
2021/03/08 15:29:57;;;;;;;;;;;;;;;;;;5036869;28;909;-74
2021/03/08 15:32:23;;;;;;;;;;;;;;;;;;5054191;28;1959;-74
2021/03/08 15:34:48;;;;;;;;;;;;;;;;;;5036778;28;2536;-74
2021/03/08 15:37:13;;;;;;;;;;;;;;;;;;5054757;28;1338;-72
2021/03/08 15:39:38;;;;;;;;;;;;;;;;;;5036590;28;1292;-73
2021/03/08 15:42:04;;;;;;;;;;;;;;;;;;5036481;28;1378;-73
2021/03/08 15:44:30;;;;;;;;;;;;;;;;;;5036424;28;1589;-74
2021/03/08 15:46:56;;;;;;;;;;;;;;;;;;5054474;28;1396;-73
2021/03/08 15:49:21;;;;;;;;;;;;;;;;;;5036588;28;1254;-73
2021/03/08 15:51:46;;;;;;;;;;;;;;;;;;5036511;28;1894;-73
2021/03/08 15:54:12;;;;;;;;;;;;;;;;;;5036362;28;876;-74
2021/03/08 15:56:37;;;;;;;;;;;;;;;;;;5054176;28;1408;-73
2021/03/08 15:59:02;;;;;;;;;;;;;;;;;;5036946;28;952;-74
2021/03/08 16:01:27;;;;;;;;;;;;;;;;;;5055481;28;916;-72
2021/03/08 16:03:53;;;;;;;;;;;;;;;;;;5040508;28;1336;-73
2021/03/08 16:06:18;;;;;;;;;;;;;;;;;;5040392;28;1278;-73
2021/03/08 16:08:44;;;;;;;;;;;;;;;;;;5040403;28;1582;-73
2021/03/08 16:11:09;;;;;;;;;;;;;;;;;;5040769;28;1949;-73
2021/03/08 16:13:34;;;;;;;;;;;;;;;;;;5040264;28;1109;-72
2021/03/08 16:15:59;;;;;;;;;;;;;;;;;;5058308;28;1302;-74
2021/03/08 16:18:24;;;;;;;;;;;;;;;;;;5040359;28;1197;-73
2021/03/08 16:20:50;;;;;;;;;;;;;;;;;;5040156;28;1702;-74
2021/03/08 16:23:15;;;;;;;;;;;;;;;;;;5058087;28;853;-73
2021/03/08 16:25:40;;;;;;;;;;;;;;;;;;5040449;28;1533;-74
2021/03/08 16:28:06;;;;;;;;;;;;;;;;;;5039982;28;870;-73
2021/03/08 16:30:31;;;;;;;;;;;;;;;;;;5023629;28;1476;-73
2021/03/08 16:32:57;;;;;;;;;;;;;;;;;;5039814;28;1894;-73
2021/03/08 16:35:22;;;;;;;;;;;;;;;;;;5040009;28;1286;-72
2021/03/08 16:37:48;;;;;;;;;;;;;;;;;;5057758;28;928;-73
2021/03/08 16:40:14;;;;;;;;;;;;;;;;;;5057868;28;892;-74
2021/03/08 16:42:39;;;;;;;;;;;;;;;;;;5039865;28;1740;-73
2021/03/08 16:45:05;;;;;;;;;;;;;;;;;;5057930;28;1413;-74
2021/03/08 16:47:31;;;;;;;;;;;;;;;;;;5039732;28;1648;-73
2021/03/08 16:49:56;;;;;;;;;;;;;;;;;;5057543;28;810;-73
2021/03/08 16:52:21;;;;;;;;;;;;;;;;;;5039491;28;1902;-75
2021/03/08 16:54:46;;;;;;;;;;;;;;;;;;5039619;28;1278;-73
2021/03/08 16:57:12;;;;;;;;;;;;;;;;;;5057228;28;1361;-75
2021/03/08 16:59:37;;;;;;;;;;;;;;;;;;5057683;28;1039;-74
2021/03/08 17:02:02;;;;;;;;;;;;;;;;;;5057225;28;865;-72
2021/03/08 17:04:27;;;;;;;;;;;;;;;;;;5039578;28;1112;-75
2021/03/08 17:06:53;;;;;;;;;;;;;;;;;;5057177;28;1317;-73
2021/03/08 17:09:18;;;;;;;;;;;;;;;;;;5057129;28;893;-74